createdAt,value
2022-11-22T00:01:16.693Z,6.43
2022-11-22T00:04:40.431Z,6.47
2022-11-22T00:08:04.750Z,5.63
2022-11-22T00:11:30.004Z,5.60
2022-11-22T00:14:56.842Z,5.10
2022-11-22T00:18:20.910Z,5.13
2022-11-22T00:21:44.681Z,0.80
2022-11-22T00:25:09.586Z,0.70
2022-11-22T00:28:34.881Z,0.80
2022-11-22T00:31:58.597Z,0.67
2022-11-22T00:35:22.467Z,0.70
2022-11-22T00:38:46.520Z,0.80
2022-11-22T00:42:10.334Z,0.80
2022-11-22T00:45:35.975Z,0.87
2022-11-22T00:48:59.598Z,0.80
2022-11-22T00:52:23.358Z,0.80
2022-11-22T00:55:47.228Z,0.77
2022-11-22T00:59:11.000Z,0.90
2022-11-22T01:02:36.072Z,0.90
2022-11-22T01:05:59.715Z,1.10
2022-11-22T01:09:24.906Z,1.07
2022-11-22T01:12:48.542Z,1.07
2022-11-22T01:16:13.992Z,1.10
2022-11-22T01:19:39.073Z,1.10
2022-11-22T01:23:02.747Z,1.10
2022-11-22T01:26:26.364Z,1.30
2022-11-22T01:29:50.010Z,1.20
2022-11-22T01:33:13.660Z,1.30
2022-11-22T01:36:38.686Z,1.20
2022-11-22T01:40:02.361Z,1.03
2022-11-22T01:43:29.141Z,1.10
2022-11-22T01:46:55.068Z,1.00
2022-11-22T01:50:19.431Z,0.90
2022-11-22T01:53:44.646Z,0.90
2022-11-22T01:57:13.242Z,1.00
2022-11-22T02:00:38.635Z,1.00
2022-11-22T02:04:05.311Z,1.10
2022-11-22T02:07:36.196Z,1.10
2022-11-22T02:11:03.777Z,1.00
2022-11-22T02:14:29.023Z,1.00
2022-11-22T02:17:52.782Z,1.10
2022-11-22T02:21:16.459Z,1.37
2022-11-22T02:24:47.114Z,1.27
2022-11-22T02:28:14.664Z,1.20
2022-11-22T02:31:42.489Z,1.20
2022-11-22T02:35:19.467Z,1.07
2022-11-22T02:38:43.283Z,1.17
2022-11-22T02:42:07.178Z,1.20
2022-11-22T02:45:32.249Z,1.43
2022-11-22T02:48:55.994Z,1.10
2022-11-22T02:52:20.133Z,1.20
2022-11-22T02:55:43.907Z,0.90
2022-11-22T02:59:07.590Z,4.30
2022-11-22T03:02:32.633Z,4.10
2022-11-22T03:05:56.248Z,5.03
2022-11-22T03:09:20.180Z,4.70
2022-11-22T03:12:44.086Z,4.30
2022-11-22T03:16:08.384Z,3.83
2022-11-22T03:19:33.684Z,4.60
2022-11-22T03:22:57.713Z,4.70
2022-11-22T03:26:21.437Z,3.77
2022-11-22T03:29:47.250Z,3.40
2022-11-22T03:33:11.252Z,4.17
2022-11-22T03:36:36.235Z,4.07
2022-11-22T03:39:59.966Z,4.73
2022-11-22T03:43:24.044Z,5.10
2022-11-22T03:46:48.032Z,3.80
2022-11-22T03:50:11.796Z,3.73
2022-11-22T03:53:36.896Z,2.40
2022-11-22T03:57:00.630Z,4.00
2022-11-22T04:00:24.628Z,4.30
2022-11-22T04:03:48.356Z,5.77
2022-11-22T04:07:11.977Z,4.20
2022-11-22T04:10:36.952Z,4.23
2022-11-22T04:14:17.801Z,4.23
2022-11-22T04:17:44.689Z,3.47
2022-11-22T04:21:25.935Z,3.20
2022-11-22T04:25:08.744Z,3.03
2022-11-22T04:29:01.872Z,3.17
2022-11-22T04:32:35.961Z,3.37
2022-11-22T04:36:01.046Z,3.23
2022-11-22T04:39:24.756Z,3.57
2022-11-22T04:43:07.453Z,3.37
2022-11-22T04:46:34.659Z,2.57
2022-11-22T04:49:59.830Z,3.30
2022-11-22T04:53:22.896Z,3.90
2022-11-22T04:56:48.675Z,4.53
2022-11-22T05:00:13.294Z,3.90
2022-11-22T05:03:38.515Z,4.40
2022-11-22T05:07:02.976Z,3.90
2022-11-22T05:10:27.424Z,4.07
2022-11-22T05:13:51.099Z,3.07
2022-11-22T05:17:14.705Z,3.03
2022-11-22T05:20:39.769Z,3.10
2022-11-22T05:24:03.529Z,2.80
2022-11-22T05:27:27.241Z,2.97
2022-11-22T05:30:50.813Z,2.73
2022-11-22T05:34:14.511Z,2.43
2022-11-22T05:37:39.512Z,3.20
2022-11-22T05:41:03.793Z,2.83
2022-11-22T05:44:27.383Z,3.10
2022-11-22T05:47:51.019Z,2.70
2022-11-22T05:51:17.100Z,2.63
2022-11-22T05:54:42.036Z,3.07
2022-11-22T05:58:05.828Z,3.87
2022-11-22T06:01:29.654Z,3.23
2022-11-22T06:04:53.285Z,2.80
2022-11-22T06:08:16.943Z,2.80
2022-11-22T06:11:41.854Z,2.80
2022-11-22T06:15:05.999Z,3.40
2022-11-22T06:18:29.716Z,2.83
2022-11-22T06:21:53.328Z,2.67
2022-11-22T06:25:17.094Z,3.30
2022-11-22T06:28:42.623Z,2.80
2022-11-22T06:32:06.378Z,2.90
2022-11-22T06:35:30.091Z,3.23
2022-11-22T06:38:53.757Z,3.00
2022-11-22T06:42:18.074Z,3.83
2022-11-22T06:45:43.023Z,3.43
2022-11-22T06:49:06.759Z,2.90
2022-11-22T06:52:30.373Z,3.10
2022-11-22T06:55:59.750Z,4.20
2022-11-22T06:59:24.955Z,3.10
2022-11-22T07:02:49.957Z,2.83
2022-11-22T07:06:15.437Z,3.07
2022-11-22T07:09:39.291Z,3.10
2022-11-22T07:13:02.852Z,3.27
2022-11-22T07:16:26.543Z,2.73
2022-11-22T07:19:51.513Z,3.00
2022-11-22T07:23:15.467Z,3.10
2022-11-22T07:26:39.058Z,2.90
2022-11-22T07:30:02.889Z,3.20
2022-11-22T07:33:26.745Z,2.50
2022-11-22T07:36:57.257Z,3.13
2022-11-22T07:40:22.922Z,2.97
2022-11-22T07:43:47.208Z,2.87
2022-11-22T07:47:11.528Z,3.47
2022-11-22T07:50:34.999Z,2.80
2022-11-22T07:54:00.116Z,2.50
2022-11-22T07:57:23.735Z,2.57
2022-11-22T08:00:47.663Z,2.40
2022-11-22T08:04:11.210Z,2.43
2022-11-22T08:07:34.846Z,2.90
2022-11-22T08:11:00.089Z,2.77
2022-11-22T08:14:23.950Z,2.90
2022-11-22T08:17:47.674Z,2.80
2022-11-22T08:21:13.033Z,3.13
2022-11-22T08:24:36.548Z,2.53
2022-11-22T08:28:01.533Z,3.33
2022-11-22T08:31:25.099Z,4.23
2022-11-22T08:34:48.839Z,3.10
2022-11-22T08:38:12.639Z,4.10
2022-11-22T08:41:36.420Z,3.97
2022-11-22T08:45:01.413Z,3.83
2022-11-22T08:48:25.264Z,3.87
2022-11-22T08:51:48.790Z,3.40
2022-11-22T08:55:12.549Z,3.97
2022-11-22T08:58:36.702Z,4.00
2022-11-22T09:02:01.785Z,4.00
2022-11-22T09:05:25.621Z,3.83
2022-11-22T09:09:02.873Z,4.40
2022-11-22T09:12:32.699Z,4.43
2022-11-22T09:15:56.274Z,4.43
2022-11-22T09:19:21.245Z,4.13
2022-11-22T09:22:44.866Z,3.83
2022-11-22T09:26:10.733Z,3.37
2022-11-22T09:29:34.445Z,4.07
2022-11-22T09:32:58.245Z,3.30
2022-11-22T09:36:26.157Z,4.50
2022-11-22T09:39:50.063Z,5.43
2022-11-22T09:43:22.630Z,4.10
2022-11-22T09:46:53.642Z,4.30
2022-11-22T09:50:23.412Z,3.80
2022-11-22T09:53:54.063Z,4.00
2022-11-22T09:57:23.457Z,4.30
2022-11-22T10:00:52.180Z,3.97
2022-11-22T10:04:21.244Z,3.80
2022-11-22T10:07:48.960Z,4.17
2022-11-22T10:11:22.843Z,4.60
2022-11-22T10:14:51.694Z,4.60
2022-11-22T10:18:21.974Z,4.07
2022-11-22T10:21:47.615Z,4.17
2022-11-22T10:25:17.586Z,4.40
2022-11-22T10:28:52.261Z,4.80
2022-11-22T10:32:23.830Z,4.40
2022-11-22T10:36:00.728Z,3.67
2022-11-22T10:39:43.376Z,4.37
2022-11-22T10:43:25.438Z,5.33
2022-11-22T10:47:01.714Z,4.43
2022-11-22T10:50:32.599Z,4.10
2022-11-22T10:54:10.168Z,4.43
2022-11-22T10:57:39.845Z,3.50
2022-11-22T11:01:08.263Z,4.97
2022-11-22T11:04:36.596Z,4.00
2022-11-22T11:08:22.078Z,3.60
2022-11-22T11:11:47.069Z,3.80
2022-11-22T11:15:20.478Z,4.10
2022-11-22T11:18:50.473Z,4.40
2022-11-22T11:22:36.027Z,4.57
2022-11-22T11:26:19.999Z,3.47
2022-11-22T11:29:46.612Z,4.20
2022-11-22T11:33:25.048Z,3.50
2022-11-22T11:36:49.433Z,3.43
2022-11-22T11:40:28.639Z,4.07
2022-11-22T11:43:54.825Z,4.30
2022-11-22T11:47:33.886Z,4.07
2022-11-22T11:51:17.416Z,3.80
2022-11-22T11:54:44.096Z,3.80
2022-11-22T11:58:20.589Z,3.47
2022-11-22T12:01:51.399Z,3.47
2022-11-22T12:05:28.207Z,4.43
2022-11-22T12:08:51.916Z,3.87
2022-11-22T12:12:32.736Z,3.00
2022-11-22T12:16:02.558Z,3.43
2022-11-22T12:19:33.022Z,3.10
2022-11-22T12:23:14.013Z,3.40
2022-11-22T12:26:37.936Z,3.40
2022-11-22T12:30:01.555Z,3.70
2022-11-22T12:33:31.787Z,5.13
2022-11-22T12:37:01.691Z,3.03
2022-11-22T12:40:27.920Z,3.10
2022-11-22T12:43:55.414Z,3.77
2022-11-22T12:47:24.035Z,3.40
2022-11-22T12:50:51.655Z,3.70
2022-11-22T12:54:19.261Z,3.43
2022-11-22T12:57:50.776Z,3.80
2022-11-22T13:01:18.814Z,2.87
2022-11-22T13:04:50.664Z,3.00
2022-11-22T13:08:20.061Z,2.80
2022-11-22T13:11:49.693Z,3.47
2022-11-22T13:15:18.031Z,3.10
2022-11-22T13:18:47.020Z,3.40
2022-11-22T13:22:17.472Z,3.33
2022-11-22T13:25:51.844Z,3.03
2022-11-22T13:29:23.134Z,3.20
2022-11-22T13:32:51.377Z,2.73
2022-11-22T13:36:45.930Z,3.10
2022-11-22T13:40:20.340Z,3.20
2022-11-22T13:43:55.963Z,3.37
2022-11-22T13:47:39.209Z,4.00
2022-11-22T13:51:03.928Z,3.40
2022-11-22T13:55:00.852Z,3.83
2022-11-22T13:58:51.913Z,3.50
2022-11-22T14:02:24.671Z,3.37
2022-11-22T14:05:50.866Z,3.43
2022-11-22T14:09:28.578Z,3.60
2022-11-22T14:13:07.111Z,4.50
2022-11-22T14:16:47.201Z,3.70
2022-11-22T14:20:32.910Z,3.40
2022-11-22T14:24:06.072Z,3.93
2022-11-22T14:27:44.457Z,3.40
2022-11-22T14:31:21.644Z,3.10
2022-11-22T14:35:17.348Z,4.17
2022-11-22T14:38:42.705Z,3.83
2022-11-22T14:42:48.055Z,3.50
2022-11-22T14:46:51.138Z,3.50
2022-11-22T14:50:05.882Z,4.37
2022-11-22T14:53:37.378Z,2.93
2022-11-22T14:57:08.434Z,2.77
2022-11-22T15:00:49.428Z,3.63
2022-11-22T15:09:18.824Z,3.00
2022-11-22T15:09:23.224Z,3.30
2022-11-22T15:12:42.344Z,3.63
2022-11-22T15:57:47.671Z,3.63
2022-11-22T16:01:20.238Z,3.57
2022-11-22T16:04:49.308Z,4.30
2022-11-22T16:08:33.057Z,3.30
2022-11-22T16:12:01.399Z,3.03
2022-11-22T16:15:36.006Z,2.60
2022-11-22T16:19:20.475Z,3.27
2022-11-22T16:22:44.159Z,3.13
2022-11-22T16:26:21.786Z,3.40
2022-11-22T16:29:52.068Z,3.57
2022-11-22T16:33:17.184Z,3.67
2022-11-22T16:36:40.825Z,3.13
2022-11-22T16:40:06.137Z,3.00
2022-11-22T16:43:36.235Z,2.73
2022-11-22T16:47:00.906Z,3.00
2022-11-22T16:50:26.097Z,3.40
2022-11-22T16:53:51.643Z,3.27
2022-11-22T16:57:16.650Z,3.50
2022-11-22T17:00:40.389Z,3.40
2022-11-22T17:04:04.843Z,4.20
2022-11-22T17:07:33.039Z,4.20
2022-11-22T17:10:57.588Z,3.60
2022-11-22T17:14:21.109Z,3.10
2022-11-22T17:17:44.716Z,3.10
2022-11-22T17:21:16.195Z,4.40
2022-11-22T17:24:41.651Z,3.53
2022-11-22T17:28:05.565Z,3.20
2022-11-22T17:31:30.165Z,3.60
2022-11-22T17:34:53.862Z,3.90
2022-11-22T17:38:17.556Z,3.70
2022-11-22T17:41:42.811Z,3.10
2022-11-22T17:45:07.540Z,3.33
2022-11-22T17:48:31.237Z,4.30
2022-11-22T17:51:54.934Z,3.33
2022-11-22T17:55:18.675Z,3.80
2022-11-22T17:58:44.036Z,3.90
2022-11-22T18:02:07.820Z,3.97
2022-11-22T18:05:31.464Z,4.40
2022-11-22T18:08:55.010Z,3.50
2022-11-22T18:12:19.169Z,3.23
2022-11-22T18:15:44.227Z,3.67
2022-11-22T18:19:07.833Z,3.50
2022-11-22T18:22:31.544Z,4.00
2022-11-22T18:26:23.730Z,3.57
2022-11-22T18:29:43.719Z,3.83
2022-11-22T18:33:08.716Z,3.23
2022-11-22T18:40:16.080Z,3.67
2022-11-22T18:43:39.890Z,3.80
2022-11-22T18:47:03.530Z,3.67
2022-11-22T18:50:28.830Z,3.53
2022-11-22T18:53:52.395Z,4.07
2022-11-22T18:57:16.311Z,3.80
2022-11-22T19:00:39.935Z,4.33
2022-11-22T19:04:03.968Z,3.57
2022-11-22T19:07:29.048Z,3.73
2022-11-22T19:10:57.035Z,4.23
2022-11-22T19:14:20.756Z,3.40
2022-11-22T19:17:44.362Z,3.90
2022-11-22T19:21:10.052Z,3.63
2022-11-22T19:24:35.110Z,4.17
2022-11-22T19:27:58.893Z,3.77
2022-11-22T19:31:24.752Z,3.20
2022-11-22T19:34:48.519Z,4.27
2022-11-22T19:38:12.241Z,3.70
2022-11-22T19:41:37.684Z,2.90
2022-11-22T19:45:01.429Z,3.90
2022-11-22T19:48:25.097Z,3.43
2022-11-22T19:51:48.875Z,3.80
2022-11-22T19:55:12.672Z,3.53
2022-11-22T19:58:37.618Z,3.50
2022-11-22T20:02:01.278Z,4.10
2022-11-22T20:05:24.998Z,4.00
2022-11-22T20:08:48.752Z,3.60
2022-11-22T20:12:12.350Z,3.63
2022-11-22T20:15:37.318Z,3.33
2022-11-22T20:19:02.817Z,3.23
2022-11-22T20:22:26.533Z,3.20
2022-11-22T20:25:50.281Z,3.20
2022-11-22T20:29:15.099Z,3.50
2022-11-22T20:32:42.877Z,3.17
2022-11-22T20:36:08.782Z,3.57
2022-11-22T20:39:35.248Z,3.97
2022-11-22T20:42:58.902Z,3.47
2022-11-22T20:46:24.335Z,2.83
2022-11-22T20:49:49.313Z,3.43
2022-11-22T20:53:12.868Z,2.90
2022-11-22T20:56:37.556Z,3.03
2022-11-22T21:00:01.202Z,3.10
2022-11-22T21:03:25.803Z,3.43
2022-11-22T21:06:50.917Z,3.40
2022-11-22T21:10:14.541Z,3.70
2022-11-22T21:13:38.441Z,2.70
2022-11-22T21:17:22.817Z,2.90
2022-11-22T21:20:45.709Z,3.10
2022-11-22T21:24:13.079Z,3.10
2022-11-22T21:27:36.801Z,2.80
2022-11-22T21:31:00.367Z,2.77
2022-11-22T21:34:23.891Z,2.57
2022-11-22T21:37:47.564Z,2.30
2022-11-22T21:41:38.679Z,2.83
2022-11-22T21:44:59.762Z,2.20
2022-11-22T21:48:24.757Z,2.47
2022-11-22T21:51:49.405Z,2.93
2022-11-22T21:55:13.095Z,2.13
2022-11-22T21:58:38.071Z,2.33
2022-11-22T22:02:01.775Z,2.57
2022-11-22T22:05:25.523Z,2.40
2022-11-22T22:08:49.803Z,2.00
2022-11-22T22:12:13.522Z,2.07
2022-11-22T22:15:39.237Z,2.13
2022-11-22T22:19:08.045Z,2.20
2022-11-22T22:22:35.580Z,2.60
2022-11-22T22:26:00.924Z,2.47
2022-11-22T22:29:24.511Z,2.00
2022-11-22T22:32:49.545Z,2.30
2022-11-22T22:36:13.507Z,2.53
2022-11-22T22:39:37.214Z,2.33
2022-11-22T22:43:00.862Z,2.67
2022-11-22T22:46:25.383Z,3.13
2022-11-22T22:49:50.382Z,2.40
2022-11-22T22:53:14.489Z,2.50
2022-11-22T22:56:38.148Z,2.30
2022-11-22T23:00:01.826Z,2.67
2022-11-22T23:03:25.768Z,2.80
2022-11-22T23:06:50.793Z,2.73
2022-11-22T23:10:14.777Z,2.33
2022-11-22T23:13:40.375Z,2.27
2022-11-22T23:17:04.103Z,2.30
2022-11-22T23:20:27.726Z,2.43
2022-11-22T23:23:55.399Z,2.90
2022-11-22T23:27:19.167Z,2.63
2022-11-22T23:30:42.875Z,2.33
2022-11-22T23:34:06.685Z,2.60
2022-11-22T23:37:30.264Z,2.47
2022-11-22T23:40:55.538Z,2.30
2022-11-22T23:44:19.239Z,2.13
2022-11-22T23:47:42.852Z,2.30
2022-11-22T23:51:07.013Z,2.67
2022-11-22T23:54:30.643Z,2.50
2022-11-22T23:57:58.017Z,2.63
